Flight Track Log - Related Links

Times and Time Zones

All times are in EDT time to prevent confusion due to time zone crossing. See the ASQ6126 flight status page for this flight to view local times or setup timezone preferences in your user account.


Time Position Orientation Groundspeed Altitude Reporting Facility
EDT Latitude Longitude Course Direction KTS MPH feet Rate Location/Type
Tue 05:02:31 PM 46.8167 -71.3333 249° West 180 207 2,200  Level Montreal Center
Tue 05:03:31 PM 46.8500 -71.2833 46° Northeast 220 253 4,400 2,350 Climbing Montreal Center
Tue 05:04:31 PM 46.8500 -71.1833 90° East 250 288 6,900 2,300 Climbing Montreal Center
Tue 05:05:00 PM 46.7426 -71.9016 283° West  Level FlightAware Approximate
Tue 05:05:31 PM 46.8000 -71.2333 214° Southwest 230 265 9,000  Level Montreal Center
Tue 05:06:00 PM 46.7570 -72.0388 280° West  Level FlightAware Approximate
Tue 05:06:31 PM 46.7667 -71.3667 250° West 280 322 10,600  Level Montreal Center
Tue 05:07:00 PM 46.7249 -72.1898 260° West  Level Estimated
Tue 05:07:31 PM 46.7333 -71.4667 244° Southwest 320 368 11,500  Level Montreal Center
Tue 05:08:00 PM 46.6927 -72.3407 249° West  Level Estimated
Tue 05:08:31 PM 46.7000 -71.5833 247° West 350 403 12,500  Level Montreal Center
Tue 05:09:31 PM 46.7167 -71.7333 279° West 340 391 14,200 1,500 Climbing Montreal Center
Tue 05:10:31 PM 46.7333 -71.8833 279° West 350 403 15,500 1,350 Climbing Montreal Center
Tue 05:11:31 PM 46.7667 -72.0000 293° West 350 403 16,900 1,200 Climbing Montreal Center
Tue 05:12:31 PM 46.7667 -72.1500 270° West 350 403 17,900 1,250 Climbing Montreal Center
Tue 05:13:31 PM 46.7833 -72.2833 280° West 350 403 19,400 1,350 Climbing Montreal Center
Tue 05:14:31 PM 46.7333 -72.4167 241° Southwest 360 414 20,600 1,100 Climbing Montreal Center
Tue 05:15:31 PM 46.7000 -72.5667 252° West 370 426 21,600 950 Climbing Montreal Center
Tue 05:16:31 PM 46.6500 -72.7000 241° Southwest 380 437 22,500 950 Climbing Montreal Center
Tue 05:17:31 PM 46.6000 -72.8333 241° Southwest 380 437 23,500 1,000 Climbing Montreal Center
Tue 05:18:31 PM 46.5500 -72.9667 241° Southwest 380 437 24,500 1,100 Climbing Montreal Center
Tue 05:19:31 PM 46.5167 -73.1167 252° West 380 437 25,700 1,250 Climbing Montreal Center
Tue 05:20:31 PM 46.4667 -73.2667 244° Southwest 380 437 27,000 1,250 Climbing Montreal Center
Tue 05:21:31 PM 46.4167 -73.3833 238° Southwest 370 426 28,200 1,250 Climbing Montreal Center
Tue 05:22:31 PM 46.3667 -73.5333 244° Southwest 370 426 29,500 1,250 Climbing Montreal Center
Tue 05:23:31 PM 46.3167 -73.6667 242° Southwest 370 426 30,700 1,200 Climbing Montreal Center
Tue 05:24:31 PM 46.2833 -73.7833 248° West 370 426 31,900 1,200 Climbing Montreal Center
Tue 05:25:31 PM 46.2500 -73.9333 252° West 370 426 33,100 1,200 Climbing Montreal Center
Tue 05:26:31 PM 46.2000 -74.0500 238° Southwest 370 426 34,300 1,200 Climbing Montreal Center
Tue 05:27:31 PM 46.1500 -74.1833 242° Southwest 370 426 35,500 850 Climbing Montreal Center
Tue 05:28:31 PM 46.1000 -74.3167 242° Southwest 370 426 36,000 250 Climbing Montreal Center
Tue 05:29:31 PM 46.0500 -74.4667 244° Southwest 390 449 36,000  Level Montreal Center
Tue 05:30:31 PM 45.9833 -74.6167 237° Southwest 410 472 36,000  Level Montreal Center
Tue 05:31:31 PM 45.9333 -74.7667 244° Southwest 430 495 36,000  Level Montreal Center
Tue 05:32:31 PM 45.8833 -74.9000 242° Southwest 430 495 36,000  Level Montreal Center
Tue 05:33:31 PM 45.8167 -75.0833 242° Southwest 430 495 36,000  Level Montreal Center
Tue 05:34:31 PM 45.7667 -75.2500 247° West 440 506 36,000  Level Montreal Center
Tue 05:35:31 PM 45.7333 -75.4000 252° West 430 495 36,000  Level Montreal Center
Tue 05:36:31 PM 45.6833 -75.5333 242° Southwest 430 495 36,000  Level Montreal Center
Tue 05:37:31 PM 45.6333 -75.7000 247° West 430 495 36,000  Level Montreal Center
Tue 05:38:31 PM 45.6000 -75.8667 254° West 430 495 36,000  Level Montreal Center
Tue 05:39:31 PM 45.5500 -76.0167 245° Southwest 430 495 36,000  Level Montreal Center
Tue 05:40:31 PM 45.5000 -76.1833 247° West 430 495 36,000  Level Montreal Center
Tue 05:41:31 PM 45.4333 -76.3500 240° Southwest 430 495 36,000  Level Montreal Center
Tue 05:42:31 PM 45.3833 -76.5000 245° Southwest 440 506 36,000  Level Montreal Center
Tue 05:43:31 PM 45.3333 -76.6667 247° West 440 506 36,000  Level Montreal Center
Tue 05:44:31 PM 45.2833 -76.8333 247° West 440 506 36,000  Level Montreal Center
Tue 05:45:31 PM 45.2333 -76.9833 245° Southwest 440 506 36,000  Level Montreal Center
Tue 05:46:31 PM 45.2000 -77.1333 253° West 440 506 36,000  Level Montreal Center
Tue 05:47:31 PM 45.1500 -77.3000 247° West 440 506 36,000  Level Montreal Center
Tue 05:48:31 PM 45.1000 -77.4667 247° West 430 495 36,000  Level Montreal Center
Tue 05:49:31 PM 45.0500 -77.6333 247° West 440 506 36,000  Level Montreal Center
Tue 05:50:31 PM 45.0000 -77.7667 242° Southwest 440 506 36,000  Level Montreal Center
Tue 05:51:31 PM 44.9333 -77.9333 241° Southwest 440 506 36,000  Level Montreal Center
Tue 05:52:31 PM 44.9000 -78.0667 251° West 440 506 36,000  Level Montreal Center
Tue 05:53:31 PM 44.8333 -78.2333 241° Southwest 440 506 36,000  Level Montreal Center
Tue 05:54:31 PM 44.8000 -78.4000 254° West 440 506 36,000  Level Montreal Center
Tue 05:55:31 PM 44.7333 -78.5667 241° Southwest 440 506 36,000  Level Montreal Center
Tue 05:56:31 PM 44.6833 -78.7000 242° Southwest 440 506 36,000  Level Montreal Center
Tue 05:57:31 PM 44.6333 -78.8833 249° West 450 518 36,000  Level Montreal Center
Tue 05:58:31 PM 44.5833 -79.0167 242° Southwest 450 518 36,000  Level Montreal Center
Tue 05:59:31 PM 44.5167 -79.1833 241° Southwest 450 518 36,000  Level Montreal Center
Tue 06:00:31 PM 44.4667 -79.3500 247° West 450 518 36,000  Level Montreal Center
Tue 06:01:31 PM 44.4167 -79.5000 245° Southwest 450 518 36,000  Level Montreal Center
Tue 06:02:56 PM 44.3500 -79.7000 245° Southwest 450 518 36,000  Level Toronto Center
Tue 06:03:56 PM 44.3000 -79.8500 245° Southwest 450 518 36,000  Level Toronto Center
Tue 06:04:56 PM 44.2333 -80.0000 238° Southwest 450 518 36,000  Level Toronto Center
Tue 06:05:56 PM 44.1833 -80.1667 247° West 440 506 36,000  Level Toronto Center
Tue 06:06:56 PM 44.1333 -80.3333 247° West 440 506 36,000  Level Toronto Center
Tue 06:07:56 PM 44.0833 -80.4667 242° Southwest 440 506 36,000  Level Toronto Center
Tue 06:08:56 PM 44.0167 -80.6333 241° Southwest 440 506 36,000  Level Toronto Center
Tue 06:09:56 PM 43.9667 -80.7667 243° Southwest 450 518 36,000  Level Toronto Center
Tue 06:10:56 PM 43.9000 -80.9500 243° Southwest 450 518 36,000  Level Toronto Center
Tue 06:11:56 PM 43.8500 -81.0833 243° Southwest 450 518 36,000  Level Toronto Center
Tue 06:12:56 PM 43.7833 -81.2500 241° Southwest 450 518 36,000  Level Toronto Center
Tue 06:13:56 PM 43.7333 -81.4167 248° West 450 518 36,000  Level Toronto Center
Tue 06:14:56 PM 43.6833 -81.5500 243° Southwest 450 518 36,000  Level Toronto Center
Tue 06:15:56 PM 43.6333 -81.7000 245° Southwest 450 518 36,000  Level Toronto Center
Tue 06:16:56 PM 43.5667 -81.8667 241° Southwest 450 518 36,000  Level Toronto Center
Tue 06:17:56 PM 43.5000 -82.0167 239° Southwest 450 518 36,000  Level Toronto Center
Tue 06:19:10 PM 43.4469 -82.2158 250° West 449 517 36,000  Level Cleveland Center
Tue 06:20:10 PM 43.3906 -82.3686 243° Southwest 449 517 36,000  Level Cleveland Center
Tue 06:21:10 PM 43.3339 -82.5211 243° Southwest 449 517 36,000  Level Cleveland Center
Tue 06:22:10 PM 43.2728 -82.6703 241° Southwest 449 517 36,000  Level Cleveland Center
Tue 06:23:10 PM 43.2261 -82.8256 248° West 449 517 36,000  Level Cleveland Center
Tue 06:24:10 PM 43.1814 -82.9861 249° West 444 511 36,000  Level Cleveland Center
Tue 06:25:10 PM 43.1342 -83.1464 248° West 450 518 36,000  Level Cleveland Center
Tue 06:26:10 PM 43.0908 -83.3067 250° West 455 524 36,000  Level Cleveland Center
Tue 06:27:10 PM 43.0453 -83.4667 249° West 455 524 36,000 -200 Level Cleveland Center
Tue 06:28:10 PM 43.0014 -83.6267 249° West 455 524 35,600 -694 Descending Cleveland Center
Tue 06:29:11 PM 42.9597 -83.7864 250° West 450 518 34,600 -1,050 Descending Cleveland Center
Tue 06:30:10 PM 42.9464 -83.9586 264° West 447 514 33,500 -945 Descending Cleveland Center
Tue 06:31:56 PM 42.9000 -84.2500 258° West 460 529 32,000 -542 Descending Toronto Center
Tue 06:32:56 PM 42.8833 -84.4333 263° West 450 518 32,000  Level Toronto Center
Tue 06:33:56 PM 42.8667 -84.6000 262° West 450 518 32,000  Level Toronto Center
Tue 06:34:56 PM 42.8500 -84.7667 262° West 450 518 32,000  Level Toronto Center
Tue 06:35:56 PM 42.8167 -84.9333 255° West 450 518 32,000  Level Toronto Center
Tue 06:36:56 PM 42.8167 -85.0833 270° West 440 506 32,000 -243 Level Toronto Center
Tue 06:38:24 PM 42.8042 -85.3306 266° West 438 504 31,400 -720 Descending Chicago Center
Tue 06:39:26 PM 42.7875 -85.4858 262° West 419 482 30,200 -1,161 Descending Chicago Center
Tue 06:40:28 PM 42.7614 -85.6375 257° West 412 474 29,000 -1,680 Descending Chicago Center
Tue 06:41:31 PM 42.7347 -85.7847 256° West 403 464 26,700 -2,832 Descending Chicago Center
Tue 06:42:33 PM 42.7089 -85.9256 256° West 388 447 23,100 -3,097 Descending Chicago Center
Tue 06:43:35 PM 42.6817 -86.0717 256° West 392 451 20,300 -1,500 Descending Chicago Center
Tue 06:44:37 PM 42.6586 -86.2017 256° West 357 411 20,000 -290 Descending Chicago Center
Tue 06:45:39 PM 42.6303 -86.3517 256° West 341 392 19,700 -581 Descending Chicago Center
Tue 06:46:41 PM 42.6072 -86.4736 256° West 335 386 18,800 -1,113 Descending Chicago Center
Tue 06:47:43 PM 42.5842 -86.5936 255° West 331 381 17,400 -1,500 Descending Chicago Center
Tue 06:48:45 PM 42.5642 -86.7106 257° West 320 368 15,700 -1,597 Descending Chicago Center
Tue 06:49:47 PM 42.5350 -86.8208 250° West 312 359 14,100 -1,597 Descending Chicago Center
Tue 06:50:49 PM 42.5103 -86.9289 253° West 304 350 12,400 -1,839 Descending Chicago Center
Tue 06:51:51 PM 42.5156 -87.0642 273° West 297 342 10,300 -1,632 Descending Chicago Center
Tue 06:52:54 PM 42.4800 -87.1597 243° Southwest 287 330 9,000 -624 Descending Chicago Center
Tue 06:53:56 PM 42.4358 -87.2453 235° Southwest 281 323 9,000  Level Chicago Center
Tue 06:54:58 PM 42.3578 -87.2756 196° South 290 334 9,000 -532 Level Chicago Center
Tue 06:56:00 PM 42.2728 -87.3083 196° South 282 325 7,900 -968 Descending Chicago Center
Tue 06:57:02 PM 42.1992 -87.3375 196° South 278 320 7,000 -919 Descending Chicago Center
Tue 06:58:04 PM 42.1267 -87.3647 196° South 271 312 6,000 -484 Descending Chicago Center
Tue 06:59:06 PM 42.0575 -87.3911 196° South 263 303 6,000  Level Chicago Center
Tue 07:00:08 PM 41.9961 -87.4400 211° Southwest 271 312 6,000  Level Chicago Center
Tue 07:01:10 PM 41.9814 -87.5439 259° West 238 274 6,000 -290 Level Chicago Center
Tue 07:02:12 PM 41.9839 -87.6278 272° West 229 264 5,400 -581 Descending Chicago Center

Login

Don't have an account? Register now (free) for customized features, flight alerts, and more!